Santa Fe, New Mexico
Current Conditions -  °F | °C
As of 6:53 PM on Saturday 25 Oct 2014 (Local Time) from KSAF Reporting Station
Clear Clear  
Wind Chill: 64°   Ceiling: Unl
Heat Index: 64°   Visibility: 10mi
Dew Point: 27°   Wind: 5mph
Humidity: 25%   Direction: 220°SW
Pressure: 30.21"   Gusts: NA
Location:  35.69°N, 105.93°W
Report Text: KSAF 260053Z 22004KT 10SM CLR 18/M03 A3021 RMK AO2 SLP169 T01781028
Loading
Personal Weather Stations






























Interactive Weather Map
Tropical Storm Tracking
New forecast layout! Learn more

10-Day Weather Forecast

Advertisements
Track Severe Weather on mobile